createdAt,value
2018-09-22T00:01:27.729Z,99.90
2018-09-22T00:03:56.895Z,99.90
2018-09-22T00:06:26.244Z,99.90
2018-09-22T00:08:55.421Z,99.90
2018-09-22T00:11:25.087Z,99.90
2018-09-22T00:13:54.223Z,99.90
2018-09-22T00:16:23.478Z,99.90
2018-09-22T00:18:52.578Z,99.90
2018-09-22T00:21:21.834Z,99.90
2018-09-22T00:23:51.145Z,99.90
2018-09-22T00:26:20.227Z,99.90
2018-09-22T00:28:49.345Z,99.90
2018-09-22T00:31:18.389Z,99.90
2018-09-22T00:33:47.571Z,99.90
2018-09-22T00:36:16.533Z,99.90
2018-09-22T00:38:45.934Z,99.90
2018-09-22T00:41:14.889Z,99.90
2018-09-22T00:43:43.961Z,99.90
2018-09-22T00:46:12.898Z,99.90
2018-09-22T00:48:41.884Z,99.90
2018-09-22T00:51:10.880Z,99.90
2018-09-22T00:53:40.061Z,99.90
2018-09-22T00:56:09.556Z,99.90
2018-09-22T00:58:39.686Z,99.90
2018-09-22T01:01:08.915Z,99.90
2018-09-22T01:03:38.017Z,99.90
2018-09-22T01:06:07.405Z,99.90
2018-09-22T01:08:36.530Z,99.90
2018-09-22T01:11:05.729Z,99.90
2018-09-22T01:13:34.721Z,99.90
2018-09-22T01:16:04.322Z,99.90
2018-09-22T01:18:33.344Z,99.90
2018-09-22T01:21:02.356Z,99.90
2018-09-22T01:23:31.351Z,99.90
2018-09-22T01:26:00.328Z,99.90
2018-09-22T01:28:29.293Z,99.90
2018-09-22T01:30:58.331Z,99.90
2018-09-22T01:33:27.293Z,99.90
2018-09-22T01:35:56.286Z,99.90
2018-09-22T01:38:25.245Z,99.90
2018-09-22T01:40:54.279Z,99.90
2018-09-22T01:43:23.234Z,99.90
2018-09-22T01:45:52.287Z,99.90
2018-09-22T01:48:21.437Z,99.90
2018-09-22T01:50:50.539Z,99.90
2018-09-22T01:53:19.599Z,99.90
2018-09-22T01:55:48.569Z,99.90
2018-09-22T01:58:17.896Z,99.90
2018-09-22T02:00:47.055Z,99.90
2018-09-22T02:03:16.055Z,99.90
2018-09-22T02:05:45.050Z,99.90
2018-09-22T02:08:14.278Z,99.90
2018-09-22T02:10:43.447Z,99.90
2018-09-22T02:13:12.628Z,99.90
2018-09-22T02:15:41.805Z,99.90
2018-09-22T02:18:11.065Z,99.90
2018-09-22T02:20:40.451Z,99.90
2018-09-22T02:23:09.420Z,99.90
2018-09-22T02:25:38.459Z,99.90
2018-09-22T02:28:07.606Z,99.90
2018-09-22T02:30:36.605Z,99.90
2018-09-22T02:33:05.833Z,99.90
2018-09-22T02:35:35.143Z,99.90
2018-09-22T02:38:04.085Z,99.90
2018-09-22T02:40:33.167Z,99.90
2018-09-22T02:43:02.282Z,99.90
2018-09-22T02:45:31.358Z,99.90
2018-09-22T02:48:00.417Z,99.90
2018-09-22T02:50:29.363Z,99.90
2018-09-22T02:52:58.450Z,99.90
2018-09-22T02:55:27.441Z,99.90
2018-09-22T02:57:56.478Z,99.90
2018-09-22T03:00:25.463Z,99.90
2018-09-22T03:02:54.432Z,99.90
2018-09-22T03:05:23.405Z,99.90
2018-09-22T03:07:52.420Z,99.90
2018-09-22T03:10:21.522Z,99.90
2018-09-22T03:12:50.483Z,99.90
2018-09-22T03:15:19.561Z,99.90
2018-09-22T03:17:48.538Z,99.90
2018-09-22T03:20:17.479Z,99.90
2018-09-22T03:22:46.544Z,99.90
2018-09-22T03:25:15.554Z,99.90
2018-09-22T03:27:44.646Z,99.90
2018-09-22T03:30:13.735Z,99.90
2018-09-22T03:32:42.704Z,99.90
2018-09-22T03:35:11.651Z,99.90
2018-09-22T03:37:40.586Z,99.90
2018-09-22T03:40:09.738Z,99.90
2018-09-22T03:42:38.715Z,99.90
2018-09-22T03:45:07.706Z,99.90
2018-09-22T03:47:36.663Z,99.90
2018-09-22T03:50:05.919Z,99.90
2018-09-22T03:52:34.879Z,99.90
2018-09-22T03:55:03.853Z,99.90
2018-09-22T03:57:32.843Z,99.90
2018-09-22T04:00:01.825Z,99.90
2018-09-22T04:02:30.789Z,99.90
2018-09-22T04:04:59.812Z,99.90
2018-09-22T04:07:28.946Z,99.90
2018-09-22T04:09:58.191Z,99.90
2018-09-22T04:12:27.184Z,99.90
2018-09-22T04:14:56.193Z,99.90
2018-09-22T04:17:25.545Z,99.90
2018-09-22T04:19:54.953Z,99.90
2018-09-22T04:22:23.923Z,99.90
2018-09-22T04:24:53.045Z,99.90
2018-09-22T04:27:22.110Z,99.90
2018-09-22T04:29:51.430Z,99.90
2018-09-22T04:32:20.565Z,99.90
2018-09-22T04:34:49.616Z,99.90
2018-09-22T04:37:18.713Z,99.90
2018-09-22T04:39:47.790Z,99.90
2018-09-22T04:42:17.389Z,99.90
2018-09-22T04:44:46.334Z,99.90
2018-09-22T04:47:15.519Z,99.90
2018-09-22T04:49:45.342Z,99.90
2018-09-22T04:52:14.578Z,99.90
2018-09-22T04:54:43.570Z,99.90
2018-09-22T04:57:12.791Z,99.90
2018-09-22T04:59:42.118Z,99.90
2018-09-22T05:02:11.279Z,99.90
2018-09-22T05:04:40.225Z,99.90
2018-09-22T05:07:10.382Z,99.90
2018-09-22T05:09:40.415Z,99.90
2018-09-22T05:12:09.561Z,99.90
2018-09-22T05:14:38.650Z,99.90
2018-09-22T05:17:07.727Z,99.90
2018-09-22T05:19:36.639Z,99.90
2018-09-22T05:22:05.942Z,99.90
2018-09-22T05:24:35.266Z,99.90
2018-09-22T05:27:05.381Z,99.90
2018-09-22T05:29:34.419Z,99.90
2018-09-22T05:32:03.385Z,99.90
2018-09-22T05:34:32.416Z,99.90
2018-09-22T05:37:01.578Z,99.90
2018-09-22T05:39:30.528Z,99.90
2018-09-22T05:41:59.515Z,99.90
2018-09-22T05:44:28.875Z,99.90
2018-09-22T05:46:58.995Z,99.90
2018-09-22T05:49:28.340Z,99.90
2018-09-22T05:51:57.360Z,99.90
2018-09-22T05:54:27.046Z,99.90
2018-09-22T05:56:56.233Z,99.90
2018-09-22T05:59:25.351Z,99.90
2018-09-22T06:01:55.537Z,99.90
2018-09-22T06:04:24.712Z,99.90
2018-09-22T06:06:54.594Z,99.90
2018-09-22T06:09:23.631Z,99.90
2018-09-22T06:11:53.048Z,99.90
2018-09-22T06:14:22.297Z,99.90
2018-09-22T06:16:51.652Z,99.90
2018-09-22T06:19:21.845Z,99.90
2018-09-22T06:21:50.823Z,99.90
2018-09-22T06:24:20.150Z,99.90
2018-09-22T06:26:49.458Z,99.90
2018-09-22T06:29:18.625Z,99.90
2018-09-22T06:31:47.609Z,99.90
2018-09-22T06:34:16.594Z,99.90
2018-09-22T06:36:45.571Z,99.90
2018-09-22T06:39:14.679Z,99.90
2018-09-22T06:41:43.655Z,99.90
2018-09-22T06:44:12.651Z,99.90
2018-09-22T06:46:41.787Z,99.90
2018-09-22T06:49:10.797Z,99.90
2018-09-22T06:51:39.814Z,99.90
2018-09-22T06:54:08.773Z,99.90
2018-09-22T06:56:37.804Z,99.90
2018-09-22T06:59:06.950Z,99.90
2018-09-22T07:01:35.918Z,99.90
2018-09-22T07:04:04.939Z,99.90
2018-09-22T07:06:33.946Z,99.90
2018-09-22T07:09:03.077Z,99.90
2018-09-22T07:11:32.178Z,99.90
2018-09-22T07:14:01.262Z,99.90
2018-09-22T07:16:30.435Z,99.90
2018-09-22T07:18:59.613Z,99.90
2018-09-22T07:21:34.068Z,99.90
2018-09-22T07:24:03.166Z,99.90
2018-09-22T07:26:32.283Z,99.90
2018-09-22T07:29:01.239Z,99.90
2018-09-22T07:31:30.250Z,99.90
2018-09-22T07:33:59.189Z,99.90
2018-09-22T07:36:28.681Z,99.90
2018-09-22T07:38:57.693Z,99.90
2018-09-22T07:41:26.679Z,99.90
2018-09-22T07:43:55.689Z,99.90
2018-09-22T07:46:24.650Z,99.90
2018-09-22T07:48:55.064Z,99.90
2018-09-22T07:51:24.445Z,99.90
2018-09-22T07:53:53.447Z,99.90
2018-09-22T07:56:22.750Z,99.90
2018-09-22T07:58:52.226Z,99.90
2018-09-22T08:01:21.179Z,99.90
2018-09-22T08:03:50.302Z,99.90
2018-09-22T08:06:19.303Z,99.90
2018-09-22T08:08:48.228Z,99.90
2018-09-22T08:11:17.207Z,99.90
2018-09-22T08:13:46.163Z,99.90
2018-09-22T08:16:15.142Z,99.90
2018-09-22T08:18:44.159Z,99.90
2018-09-22T08:21:13.093Z,99.90
2018-09-22T08:23:42.142Z,99.90
2018-09-22T08:26:11.398Z,99.90
2018-09-22T08:28:40.537Z,99.90
2018-09-22T08:31:09.731Z,99.90
2018-09-22T08:33:39.847Z,99.90
2018-09-22T08:36:08.965Z,99.90
2018-09-22T08:38:38.146Z,99.90
2018-09-22T08:41:07.176Z,99.90
2018-09-22T08:43:36.190Z,99.90
2018-09-22T08:46:05.607Z,99.90
2018-09-22T08:48:34.939Z,99.90
2018-09-22T08:51:04.010Z,99.90
2018-09-22T08:53:32.974Z,99.90
2018-09-22T08:56:02.243Z,99.90
2018-09-22T08:58:31.370Z,99.90
2018-09-22T09:01:00.617Z,99.90
2018-09-22T09:03:29.675Z,99.90
2018-09-22T09:05:58.802Z,99.90
2018-09-22T09:08:27.859Z,99.90
2018-09-22T09:10:56.866Z,99.90
2018-09-22T09:13:26.847Z,99.90
2018-09-22T09:15:55.818Z,99.90
2018-09-22T09:18:24.813Z,99.90
2018-09-22T09:20:53.999Z,99.90
2018-09-22T09:23:23.055Z,99.90
2018-09-22T09:25:52.138Z,99.90
2018-09-22T09:28:21.192Z,99.90
2018-09-22T09:30:50.383Z,99.90
2018-09-22T09:33:19.681Z,99.90
2018-09-22T09:35:49.951Z,99.90
2018-09-22T09:38:19.168Z,99.90
2018-09-22T09:40:48.273Z,99.90
2018-09-22T09:43:17.267Z,99.90
2018-09-22T09:45:46.243Z,99.90
2018-09-22T09:48:15.521Z,99.90
2018-09-22T09:50:44.646Z,99.90
2018-09-22T09:53:13.958Z,99.90
2018-09-22T09:55:43.115Z,99.90
2018-09-22T09:58:12.484Z,99.90
2018-09-22T10:00:45.129Z,99.90
2018-09-22T10:03:15.611Z,99.90
2018-09-22T10:05:45.229Z,99.90
2018-09-22T10:08:14.402Z,99.90
2018-09-22T10:10:43.630Z,99.90
2018-09-22T10:13:12.617Z,99.90
2018-09-22T10:15:41.586Z,99.90
2018-09-22T10:18:10.630Z,99.90
2018-09-22T10:20:39.569Z,99.90
2018-09-22T10:23:08.609Z,99.90
2018-09-22T10:25:38.685Z,99.90
2018-09-22T10:28:07.741Z,99.90
2018-09-22T10:30:37.094Z,99.90
2018-09-22T10:33:06.124Z,99.90
2018-09-22T10:35:35.299Z,99.90
2018-09-22T10:38:05.398Z,99.90
2018-09-22T10:40:34.696Z,99.90
2018-09-22T10:43:03.914Z,99.90
2018-09-22T10:45:32.886Z,99.90
2018-09-22T10:48:01.965Z,99.50
2018-09-22T10:50:32.532Z,99.10
2018-09-22T10:53:01.633Z,98.60
2018-09-22T10:55:30.637Z,99.80
2018-09-22T10:57:59.654Z,98.30
2018-09-22T11:00:28.798Z,97.40
2018-09-22T11:02:57.975Z,98.60
2018-09-22T11:05:27.050Z,96.90
2018-09-22T11:07:56.242Z,96.70
2018-09-22T11:10:25.451Z,96.60
2018-09-22T11:12:54.594Z,96.30
2018-09-22T11:15:23.626Z,95.90
2018-09-22T11:17:52.597Z,96.40
2018-09-22T11:20:21.825Z,96.80
2018-09-22T11:22:50.971Z,97.00
2018-09-22T11:25:20.007Z,96.20
2018-09-22T11:27:49.082Z,97.00
2018-09-22T11:30:18.076Z,96.40
2018-09-22T11:32:47.125Z,96.50
2018-09-22T11:35:17.699Z,96.60
2018-09-22T11:37:46.687Z,96.50
2018-09-22T11:40:15.738Z,96.90
2018-09-22T11:42:45.272Z,97.40
2018-09-22T11:45:14.386Z,97.00
2018-09-22T11:47:43.632Z,97.60
2018-09-22T11:50:12.937Z,97.10
2018-09-22T11:52:42.023Z,96.90
2018-09-22T11:55:11.198Z,97.20
2018-09-22T11:57:41.318Z,97.50
2018-09-22T12:00:10.610Z,98.80
2018-09-22T12:02:39.635Z,98.10
2018-09-22T12:05:09.222Z,97.80
2018-09-22T12:07:38.256Z,97.20
2018-09-22T12:10:07.410Z,97.00
2018-09-22T12:12:36.418Z,97.90
2018-09-22T12:15:05.439Z,98.10
2018-09-22T12:17:34.665Z,96.90
2018-09-22T12:20:03.674Z,97.60
2018-09-22T12:22:32.685Z,97.40
2018-09-22T12:25:01.827Z,97.30
2018-09-22T12:27:30.963Z,96.60
2018-09-22T12:30:00.247Z,96.40
2018-09-22T12:32:29.329Z,97.00
2018-09-22T12:34:58.582Z,96.10
2018-09-22T12:37:27.749Z,96.60
2018-09-22T12:39:57.067Z,97.10
2018-09-22T12:42:26.102Z,97.60
2018-09-22T12:44:55.236Z,97.30
2018-09-22T12:47:24.320Z,96.80
2018-09-22T12:49:55.384Z,96.50
2018-09-22T12:52:24.502Z,96.70
2018-09-22T12:54:53.657Z,97.40
2018-09-22T12:57:22.698Z,97.50
2018-09-22T12:59:51.758Z,98.20
2018-09-22T13:02:20.798Z,98.60
2018-09-22T13:04:49.937Z,98.20
2018-09-22T13:07:19.053Z,97.70
2018-09-22T13:09:48.103Z,97.40
2018-09-22T13:12:17.191Z,98.70
2018-09-22T13:14:46.211Z,97.40
2018-09-22T13:17:15.269Z,97.80
2018-09-22T13:19:44.235Z,97.80
2018-09-22T13:22:13.343Z,97.60
2018-09-22T13:24:42.410Z,98.20
2018-09-22T13:27:11.510Z,98.80
2018-09-22T13:29:40.536Z,99.00
2018-09-22T13:32:09.509Z,98.80
2018-09-22T13:34:38.701Z,99.30
2018-09-22T13:37:08.278Z,98.70
2018-09-22T13:39:37.170Z,98.30
2018-09-22T13:42:06.159Z,98.20
2018-09-22T13:44:35.425Z,97.70
2018-09-22T13:47:04.370Z,98.40
2018-09-22T13:49:33.923Z,98.50
2018-09-22T13:52:02.990Z,98.40
2018-09-22T13:54:32.118Z,98.50
2018-09-22T13:57:01.422Z,98.80
2018-09-22T13:59:30.671Z,99.60
2018-09-22T14:01:59.818Z,99.90
2018-09-22T14:04:29.105Z,99.90
2018-09-22T14:06:58.278Z,99.90
2018-09-22T14:09:27.402Z,99.90
2018-09-22T14:11:56.358Z,99.90
2018-09-22T14:14:25.390Z,99.90
2018-09-22T14:16:54.330Z,99.90
2018-09-22T14:19:23.314Z,99.90
2018-09-22T14:21:52.406Z,99.90
2018-09-22T14:24:23.486Z,99.90
2018-09-22T14:26:52.480Z,99.90
2018-09-22T14:29:21.510Z,99.90
2018-09-22T14:31:50.770Z,99.90
2018-09-22T14:34:20.886Z,99.90
2018-09-22T14:36:49.917Z,99.90
2018-09-22T14:39:18.869Z,99.90
2018-09-22T14:41:48.103Z,99.90
2018-09-22T14:44:17.161Z,99.90
2018-09-22T14:46:46.157Z,99.90
2018-09-22T14:49:15.201Z,99.90
2018-09-22T14:51:44.142Z,99.90
2018-09-22T14:54:13.463Z,99.90
2018-09-22T14:56:43.653Z,99.90
2018-09-22T14:59:12.931Z,99.90
2018-09-22T15:01:42.191Z,99.90
2018-09-22T15:04:11.170Z,99.90
2018-09-22T15:06:40.399Z,99.90
2018-09-22T15:09:09.394Z,99.90
2018-09-22T15:11:38.410Z,99.90
2018-09-22T15:14:07.750Z,99.90
2018-09-22T15:16:36.776Z,99.90
2018-09-22T15:19:06.127Z,99.90
2018-09-22T15:21:35.099Z,99.90
2018-09-22T15:24:04.095Z,99.90
2018-09-22T15:26:33.050Z,99.90
2018-09-22T15:29:02.078Z,99.90
2018-09-22T15:31:31.173Z,99.90
2018-09-22T15:34:00.269Z,99.90
2018-09-22T15:36:29.390Z,99.90
2018-09-22T15:38:58.478Z,99.90
2018-09-22T15:41:27.758Z,99.90
2018-09-22T15:43:56.830Z,99.90
2018-09-22T15:46:25.942Z,99.90
2018-09-22T15:48:54.908Z,99.90
2018-09-22T15:51:23.926Z,99.90
2018-09-22T15:53:53.149Z,99.90
2018-09-22T15:56:23.636Z,99.90
2018-09-22T15:58:53.189Z,99.90
2018-09-22T16:01:22.691Z,99.90
2018-09-22T16:03:51.838Z,99.90
2018-09-22T16:06:20.866Z,99.90
2018-09-22T16:08:50.340Z,99.90
2018-09-22T16:11:19.469Z,99.90
2018-09-22T16:13:48.605Z,99.90
2018-09-22T16:16:17.637Z,99.90
2018-09-22T16:18:46.790Z,99.90
2018-09-22T16:21:15.931Z,99.90
2018-09-22T16:23:44.934Z,99.90
2018-09-22T16:26:14.100Z,99.90
2018-09-22T16:28:43.153Z,99.90
2018-09-22T16:31:12.296Z,99.90
2018-09-22T16:33:41.406Z,99.90
2018-09-22T16:36:10.372Z,99.90
2018-09-22T16:38:39.399Z,99.90
2018-09-22T16:41:08.433Z,99.90
2018-09-22T16:43:37.369Z,99.90
2018-09-22T16:46:06.538Z,99.90
2018-09-22T16:48:35.697Z,99.90
2018-09-22T16:51:04.651Z,99.90
2018-09-22T16:53:33.646Z,99.90
2018-09-22T16:56:02.697Z,99.90
2018-09-22T16:58:31.812Z,99.90
2018-09-22T17:01:00.978Z,99.90
2018-09-22T17:03:30.082Z,99.90
2018-09-22T17:05:59.185Z,99.90
2018-09-22T17:08:28.307Z,99.90
2018-09-22T17:10:57.260Z,99.90
2018-09-22T17:13:26.239Z,99.90
2018-09-22T17:15:55.177Z,99.90
2018-09-22T17:18:24.130Z,99.90
2018-09-22T17:20:53.242Z,99.90
2018-09-22T17:23:22.381Z,99.90
2018-09-22T17:25:51.441Z,99.90
2018-09-22T17:28:21.768Z,99.90
2018-09-22T17:30:51.204Z,99.90
2018-09-22T17:33:20.182Z,99.90
2018-09-22T17:35:49.198Z,99.90
2018-09-22T17:38:18.274Z,99.90
2018-09-22T17:40:47.289Z,99.90
2018-09-22T17:43:16.377Z,99.90
2018-09-22T17:45:45.405Z,99.90
2018-09-22T17:48:14.365Z,99.90
2018-09-22T17:50:43.478Z,99.90
2018-09-22T17:53:13.193Z,99.90
2018-09-22T17:55:42.146Z,99.90
2018-09-22T17:58:11.137Z,99.90
2018-09-22T18:00:40.333Z,99.90
2018-09-22T18:03:09.342Z,99.90
2018-09-22T18:05:38.342Z,99.90
2018-09-22T18:08:07.441Z,99.90
2018-09-22T18:10:36.445Z,99.90
2018-09-22T18:13:05.980Z,99.90
2018-09-22T18:15:35.359Z,99.90
2018-09-22T18:18:04.393Z,99.90
2018-09-22T18:20:33.543Z,99.90
2018-09-22T18:23:02.619Z,99.90
2018-09-22T18:25:31.805Z,99.90
2018-09-22T18:28:01.043Z,99.90
2018-09-22T18:30:30.286Z,99.90
2018-09-22T18:32:59.434Z,99.90
2018-09-22T18:35:28.436Z,99.90
2018-09-22T18:37:57.410Z,99.90
2018-09-22T18:40:26.408Z,99.90
2018-09-22T18:42:55.365Z,99.90
2018-09-22T18:45:24.450Z,99.90
2018-09-22T18:47:53.569Z,99.90
2018-09-22T18:50:22.810Z,99.90
2018-09-22T18:52:51.778Z,99.90
2018-09-22T18:55:21.826Z,99.90
2018-09-22T18:57:50.793Z,99.90
2018-09-22T19:00:19.871Z,99.90
2018-09-22T19:02:49.609Z,99.90
2018-09-22T19:05:18.599Z,99.90
2018-09-22T19:07:47.586Z,99.90
2018-09-22T19:10:16.623Z,99.90
2018-09-22T19:12:45.724Z,99.90
2018-09-22T19:15:45.173Z,99.90
2018-09-22T19:18:21.162Z,99.90
2018-09-22T19:20:54.178Z,99.90
2018-09-22T19:23:30.554Z,99.90
2018-09-22T19:26:03.426Z,99.90
2018-09-22T19:28:37.610Z,99.90
2018-09-22T19:31:09.842Z,99.90
2018-09-22T19:33:56.575Z,99.90
2018-09-22T19:36:28.462Z,99.90
2018-09-22T19:39:03.389Z,99.90
2018-09-22T19:43:42.015Z,99.90
2018-09-22T19:46:17.591Z,99.90
2018-09-22T19:49:49.878Z,99.90
2018-09-22T19:52:22.480Z,99.90
2018-09-22T19:54:51.643Z,99.90
2018-09-22T19:57:20.639Z,99.90
2018-09-22T19:59:49.795Z,99.90
2018-09-22T20:02:18.907Z,99.90
2018-09-22T20:04:48.476Z,99.90
2018-09-22T20:07:17.617Z,99.90
2018-09-22T20:09:46.719Z,99.90
2018-09-22T20:12:15.724Z,99.90
2018-09-22T20:14:44.689Z,99.90
2018-09-22T20:17:13.686Z,99.90
2018-09-22T20:19:43.831Z,99.90
2018-09-22T20:22:13.012Z,99.90
2018-09-22T20:24:42.160Z,99.90
2018-09-22T20:27:11.120Z,99.90
2018-09-22T20:29:40.570Z,99.90
2018-09-22T20:32:09.642Z,99.90
2018-09-22T20:34:38.804Z,99.90
2018-09-22T20:37:07.787Z,99.90
2018-09-22T20:39:36.952Z,99.90
2018-09-22T20:42:06.439Z,99.90
2018-09-22T20:44:35.559Z,99.90
2018-09-22T20:47:04.617Z,99.90
2018-09-22T20:49:33.871Z,99.90
2018-09-22T20:52:03.099Z,99.90
2018-09-22T20:54:32.054Z,99.90
2018-09-22T20:57:01.042Z,99.90
2018-09-22T20:59:31.494Z,99.90
2018-09-22T21:02:00.693Z,99.90
2018-09-22T21:04:29.701Z,99.90
2018-09-22T21:07:00.149Z,99.90
2018-09-22T21:09:29.401Z,99.90
2018-09-22T21:11:58.368Z,99.90
2018-09-22T21:14:27.433Z,99.90
2018-09-22T21:16:56.549Z,99.90
2018-09-22T21:19:25.658Z,99.90
2018-09-22T21:21:54.788Z,99.90
2018-09-22T21:24:24.889Z,99.90
2018-09-22T21:26:54.066Z,99.90
2018-09-22T21:29:23.022Z,99.90
2018-09-22T21:31:52.161Z,99.90
2018-09-22T21:34:21.253Z,99.90
2018-09-22T21:36:50.324Z,99.90
2018-09-22T21:39:19.379Z,99.90
2018-09-22T21:41:48.423Z,99.90
2018-09-22T21:44:17.630Z,99.90
2018-09-22T21:46:46.716Z,99.90
2018-09-22T21:49:15.794Z,99.90
2018-09-22T21:51:44.968Z,99.90
2018-09-22T21:54:13.978Z,99.90
2018-09-22T21:56:42.959Z,99.90
2018-09-22T21:59:11.950Z,99.90
2018-09-22T22:01:41.863Z,99.90
2018-09-22T22:04:11.545Z,99.90
2018-09-22T22:06:40.730Z,99.90
2018-09-22T22:09:12.102Z,99.90
2018-09-22T22:11:41.527Z,99.90
2018-09-22T22:14:11.090Z,99.90
2018-09-22T22:16:40.710Z,99.90
2018-09-22T22:19:10.162Z,99.90
2018-09-22T22:23:58.818Z,99.90
2018-09-22T22:26:27.863Z,99.90
2018-09-22T22:28:57.005Z,99.90
2018-09-22T22:31:26.189Z,99.90
2018-09-22T22:33:55.197Z,99.90
2018-09-22T22:36:24.345Z,99.90
2018-09-22T22:38:53.495Z,99.90
2018-09-22T22:41:22.495Z,99.90
2018-09-22T22:43:51.493Z,99.90
2018-09-22T22:46:20.470Z,99.90
2018-09-22T22:48:49.495Z,99.90
2018-09-22T22:51:18.485Z,99.90
2018-09-22T22:53:47.497Z,99.90
2018-09-22T22:56:16.609Z,99.90
2018-09-22T22:58:45.711Z,99.90
2018-09-22T23:01:14.836Z,99.90
2018-09-22T23:03:43.998Z,99.90
2018-09-22T23:06:13.064Z,99.90
2018-09-22T23:08:42.192Z,99.90
2018-09-22T23:11:11.250Z,99.90
2018-09-22T23:13:40.610Z,99.90
2018-09-22T23:16:09.609Z,99.90
2018-09-22T23:18:38.586Z,99.90
2018-09-22T23:21:07.592Z,99.90
2018-09-22T23:23:36.635Z,99.90
2018-09-22T23:26:05.722Z,99.90
2018-09-22T23:28:34.777Z,99.90
2018-09-22T23:31:03.769Z,99.90
2018-09-22T23:33:33.255Z,99.90
2018-09-22T23:36:02.294Z,99.90
2018-09-22T23:38:31.347Z,99.90
2018-09-22T23:41:00.450Z,99.90
2018-09-22T23:43:29.477Z,99.90
2018-09-22T23:45:58.534Z,99.90
2018-09-22T23:48:29.168Z,99.90
2018-09-22T23:50:58.342Z,99.90
2018-09-22T23:53:27.462Z,99.90
2018-09-22T23:55:56.569Z,99.90
2018-09-22T23:58:25.590Z,99.90
